Etusivu
METAR-TAF:

METAR-TAF

Lentoasemat :

Laupheim, Saksa

Leveyspiiri: 48-13N, Pituuspiiri: 009-55E, korkeus merenpinnasta: 538 m

Tämänhetkinen sää

Tämä raportti tehtiin 1 tunti ja 1 minuuttia sitten, kello 20.20 UTC
Tuuli 5 kn lounaasta
Lämpötila 3°C
Kosteus 81%
Ilmanpaine 1014 hPa
Näkyvyys 10 km tai enemmän
Muutamia pilviä 5000 ft:n korkeudessa
Hajonneita pilviä 13000 ft:n korkeudessa

METAR: ETHL 182020Z 22005KT 9999 FEW050 BKN130 03/M00 Q1014 BLU BLU

Aika: 22:21 (21:21 UTC)

Sääennuste

Tämä raportti tehtiin 1 tunti ja 21 minuuttia sitten, kello 20.00 UTC
Ennuste voimassa 18. päivästä klo 21 UTC - 19. päivään klo 03 UTC
Tuuli 7 kn etelästä/lounaasta
Näkyvyys: 2100 m
Hajanaisia pilviä 4000 ft:n korkeudessa
Hajonneita pilviä 18000 ft:n korkeudessa

TAF: ETHL 182000Z 1821/1903 21007KT 9999 NSW SCT040 BKN180 CANCEL 2100

Säähavainnot ja -ennusteet yli 4000 lentoasemalta (METAR- ja TAF-raportit).

Käytössä olevat sääasemat on merkitty karttaan keltaisilla ja punaisilla pisteillä.

Aseta hiiri pisteen päälle nähdäksesi sääaseman nimen.

Klikkaa sitten nähdäksesi säähavainnot ja -ennusteet.

Kartan vaihtaminen: klikkaa mustalla rastilla varustettuja vihreitä pisteitä, niin voit zoomata sisään; viivalla varustettua vihreää pistettä, niin voit zoomata ulos tai vihreitä nuolia, niin pääset viereisille kartoille.


METAR-TAF: